METAR AND TAF INFORMATION
METAR FOR KGEG
KGEG 130653Z 00000KT 10SM FEW110 FEW150 SCT200 11/04 A2981 RMK AO2 SLP093 T01060044
KGEG 130553Z 23004KT 10SM BKN110 BKN200 13/04 A2980 RMK AO2 SLP086 T01280044 10172 20122 50004
KGEG 130453Z 25004KT 10SM BKN110 BKN200 13/05 A2981 RMK AO2 SLP091 T01330050
KGEG 130523Z 1306/1406 22006KT P6SM BKN100 BKN200
FM131000 12004KT P6SM SCT070 BKN200
FM132000 28006KT P6SM BKN250

 AIRPORT MAP

 RUNWAY INFORMATION
Runway 03 Runway length 11002 ft Runway width 150 ft
Runway elevation 2385 ft Runway displaced threshold 0 ft Runway heading 45
Runway 21 Runway length 11002 ft Runway width 150 ft
Runway elevation 2322 ft Runway displaced threshold 0 ft Runway heading 225
Runway 07 Runway length 8198 ft Runway width 150 ft
Runway elevation 2376 ft Runway displaced threshold 0 ft Runway heading 90
Runway 25 Runway length 8198 ft Runway width 150 ft
Runway elevation 2372 ft Runway displaced threshold 0 ft Runway heading 270

 AIRPORT FREQUENCIES
Type A/D Name APP/DEP Frequency 123.75 MHZ
Type ATIS Name ATIS Frequency 124.325 MHZ
Type CLD Name CLNC DEL Frequency 127.55 MHZ
Type GND Name GND Frequency 121.9 MHZ
Type OPS Name ARNG Frequency 38.75 MHZ
Type RDO Name SEATTLE RD Frequency 122.2 MHZ
Type TWR Name TWR Frequency 118.3 MHZ
Type UNIC Name UNICOM Frequency 122.95 MHZ

 AIRPORT NEAR NAVIGATION AIDS
Type NDB Name Phort Frequency 388 KHZ

-